createdAt,value
2023-06-04T00:01:43.377Z,13.37
2023-06-04T00:04:10.624Z,13.35
2023-06-04T00:06:38.284Z,13.30
2023-06-04T00:09:05.534Z,13.31
2023-06-04T00:11:35.112Z,13.27
2023-06-04T00:14:02.801Z,13.25
2023-06-04T00:16:30.874Z,13.28
2023-06-04T00:18:58.175Z,13.25
2023-06-04T00:21:25.342Z,13.24
2023-06-04T00:23:52.691Z,13.20
2023-06-04T00:26:19.976Z,13.21
2023-06-04T00:28:49.113Z,13.17
2023-06-04T00:31:17.007Z,13.11
2023-06-04T00:33:44.742Z,13.09
2023-06-04T00:36:11.937Z,13.09
2023-06-04T00:38:39.129Z,13.05
2023-06-04T00:41:06.659Z,13.02
2023-06-04T00:43:34.612Z,12.98
2023-06-04T00:46:03.612Z,12.99
2023-06-04T00:48:31.780Z,12.94
2023-06-04T00:50:59.021Z,12.90
2023-06-04T00:53:27.338Z,12.85
2023-06-04T00:55:54.576Z,12.83
2023-06-04T00:58:22.176Z,12.85
2023-06-04T01:00:49.501Z,12.83
2023-06-04T01:03:19.568Z,12.82
2023-06-04T01:05:55.571Z,12.76
2023-06-04T01:08:23.750Z,12.73
2023-06-04T01:10:54.853Z,12.72
2023-06-04T01:13:22.149Z,12.70
2023-06-04T01:15:49.965Z,12.65
2023-06-04T01:18:30.014Z,12.61
2023-06-04T01:21:02.751Z,12.59
2023-06-04T01:23:59.867Z,12.56
2023-06-04T01:26:28.133Z,12.56
2023-06-04T01:28:56.223Z,12.54
2023-06-04T01:31:24.271Z,12.54
2023-06-04T01:33:54.923Z,12.50
2023-06-04T01:36:22.146Z,12.45
2023-06-04T01:38:49.378Z,12.41
2023-06-04T01:41:18.472Z,12.42
2023-06-04T01:43:46.316Z,12.41
2023-06-04T01:46:13.587Z,12.38
2023-06-04T01:48:42.053Z,12.37
2023-06-04T01:51:09.684Z,12.36
2023-06-04T01:53:38.995Z,12.33
2023-06-04T01:56:06.734Z,12.30
2023-06-04T01:58:35.089Z,12.28
2023-06-04T02:01:04.659Z,12.29
2023-06-04T02:03:38.092Z,12.25
2023-06-04T02:06:09.516Z,12.21
2023-06-04T02:08:37.488Z,12.18
2023-06-04T02:11:05.766Z,12.11
2023-06-04T02:13:33.373Z,12.07
2023-06-04T02:16:00.689Z,12.07
2023-06-04T02:18:28.161Z,12.09
2023-06-04T02:20:55.850Z,12.11
2023-06-04T02:23:24.760Z,12.11
2023-06-04T02:25:53.885Z,12.13
2023-06-04T02:28:21.916Z,12.09
2023-06-04T02:30:49.152Z,12.05
2023-06-04T02:33:17.139Z,12.05
2023-06-04T02:35:44.723Z,12.05
2023-06-04T02:38:13.249Z,12.06
2023-06-04T02:40:41.128Z,12.06
2023-06-04T02:43:08.923Z,12.08
2023-06-04T02:45:36.461Z,12.06
2023-06-04T02:48:03.869Z,12.03
2023-06-04T02:50:31.584Z,12.05
2023-06-04T02:52:59.422Z,12.07
2023-06-04T02:55:27.073Z,12.07
2023-06-04T02:57:54.542Z,12.06
2023-06-04T03:00:21.873Z,12.06
2023-06-04T03:02:50.080Z,12.04
2023-06-04T03:05:19.115Z,12.02
2023-06-04T03:07:47.475Z,12.02
2023-06-04T03:10:16.255Z,12.05
2023-06-04T03:12:44.829Z,12.07
2023-06-04T03:15:12.175Z,12.08
2023-06-04T03:17:39.813Z,12.09
2023-06-04T03:20:08.496Z,12.11
2023-06-04T03:22:37.083Z,12.14
2023-06-04T03:25:05.149Z,12.16
2023-06-04T03:27:33.349Z,12.20
2023-06-04T03:30:00.873Z,12.20
2023-06-04T03:32:34.563Z,12.20
2023-06-04T03:35:02.537Z,12.25
2023-06-04T03:37:30.079Z,12.27
2023-06-04T03:39:57.808Z,12.28
2023-06-04T03:42:25.112Z,12.25
2023-06-04T03:44:52.819Z,12.31
2023-06-04T03:47:21.083Z,12.29
2023-06-04T03:49:48.684Z,12.29
2023-06-04T03:52:16.482Z,12.31
2023-06-04T03:54:44.140Z,12.31
2023-06-04T03:57:12.180Z,12.35
2023-06-04T03:59:39.826Z,12.40
2023-06-04T04:02:08.112Z,12.47
2023-06-04T04:04:35.966Z,12.50
2023-06-04T04:07:03.598Z,12.49
2023-06-04T04:09:31.204Z,12.51
2023-06-04T04:11:59.355Z,12.54
2023-06-04T04:14:27.004Z,12.62
2023-06-04T04:16:54.723Z,12.64
2023-06-04T04:19:22.452Z,12.62
2023-06-04T04:21:50.209Z,12.62
2023-06-04T04:24:25.641Z,12.69
2023-06-04T04:26:54.616Z,12.59
2023-06-04T04:29:26.076Z,12.70
2023-06-04T04:31:53.706Z,12.72
2023-06-04T04:34:23.062Z,12.76
2023-06-04T04:36:54.004Z,12.77
2023-06-04T04:39:25.300Z,12.83
2023-06-04T04:41:55.647Z,12.84
2023-06-04T04:44:22.930Z,12.88
2023-06-04T04:46:50.727Z,12.95
2023-06-04T04:49:18.154Z,13.03
2023-06-04T04:51:45.557Z,13.12
2023-06-04T04:54:13.474Z,13.22
2023-06-04T04:56:42.562Z,13.27
2023-06-04T04:59:10.057Z,13.30
2023-06-04T05:01:37.681Z,13.34
2023-06-04T05:04:07.240Z,13.35
2023-06-04T05:06:38.880Z,13.43
2023-06-04T05:09:08.108Z,13.45
2023-06-04T05:11:36.975Z,13.53
2023-06-04T05:14:04.956Z,13.61
2023-06-04T05:16:32.580Z,13.67
2023-06-04T05:19:01.571Z,13.70
2023-06-04T05:21:33.697Z,13.79
2023-06-04T05:24:04.782Z,13.90
2023-06-04T05:26:35.776Z,13.96
2023-06-04T05:29:09.889Z,14.04
2023-06-04T05:31:41.585Z,14.07
2023-06-04T05:34:17.884Z,14.16
2023-06-04T05:36:46.859Z,14.26
2023-06-04T05:39:15.299Z,14.30
2023-06-04T05:42:00.843Z,14.29
2023-06-04T05:44:28.703Z,14.33
2023-06-04T05:46:56.565Z,14.40
2023-06-04T05:49:25.647Z,14.45
2023-06-04T05:51:53.938Z,14.53
2023-06-04T05:54:21.789Z,14.61
2023-06-04T05:56:50.364Z,14.68
2023-06-04T05:59:17.685Z,14.74
2023-06-04T06:01:44.894Z,14.73
2023-06-04T06:04:13.732Z,14.78
2023-06-04T06:06:44.968Z,14.81
2023-06-04T06:09:12.294Z,14.86
2023-06-04T06:11:39.776Z,14.95
2023-06-04T06:14:07.043Z,14.99
2023-06-04T06:16:34.432Z,15.03
2023-06-04T06:19:03.085Z,15.07
2023-06-04T06:21:31.044Z,15.08
2023-06-04T06:23:58.473Z,15.18
2023-06-04T06:26:26.335Z,15.21
2023-06-04T06:28:57.264Z,15.28
2023-06-04T06:31:25.103Z,15.36
2023-06-04T06:33:52.388Z,15.41
2023-06-04T06:36:20.118Z,15.45
2023-06-04T06:38:47.741Z,15.48
2023-06-04T06:41:15.071Z,15.51
2023-06-04T06:43:42.261Z,15.57
2023-06-04T06:46:09.598Z,15.59
2023-06-04T06:48:38.060Z,15.69
2023-06-04T06:51:05.420Z,15.73
2023-06-04T06:53:33.437Z,15.83
2023-06-04T06:56:00.647Z,15.88
2023-06-04T06:58:28.083Z,15.92
2023-06-04T07:00:57.852Z,15.98
2023-06-04T07:03:25.593Z,16.02
2023-06-04T07:05:53.445Z,16.10
2023-06-04T07:08:22.401Z,16.18
2023-06-04T07:10:49.965Z,16.27
2023-06-04T07:13:18.338Z,16.33
2023-06-04T07:15:45.560Z,16.42
2023-06-04T07:18:13.646Z,16.48
2023-06-04T07:20:41.534Z,16.47
2023-06-04T07:23:09.129Z,16.48
2023-06-04T07:25:36.531Z,16.46
2023-06-04T07:28:05.162Z,16.53
2023-06-04T07:30:33.141Z,16.66
2023-06-04T07:33:00.696Z,16.73
2023-06-04T07:35:28.021Z,16.81
2023-06-04T07:37:55.211Z,16.85
2023-06-04T07:40:22.833Z,16.90
2023-06-04T07:42:50.356Z,16.92
2023-06-04T07:45:18.106Z,17.02
2023-06-04T07:47:46.340Z,17.09
2023-06-04T07:50:13.829Z,17.11
2023-06-04T07:52:41.419Z,17.18
2023-06-04T07:55:09.654Z,17.23
2023-06-04T07:57:37.428Z,17.31
2023-06-04T08:00:06.705Z,17.34
2023-06-04T08:02:39.098Z,17.39
2023-06-04T08:05:06.795Z,17.39
2023-06-04T08:07:34.625Z,17.49
2023-06-04T08:10:02.240Z,17.60
2023-06-04T08:12:29.799Z,17.62
2023-06-04T08:14:58.449Z,17.73
2023-06-04T08:17:25.996Z,17.78
2023-06-04T08:19:53.486Z,17.86
2023-06-04T08:22:20.846Z,17.97
2023-06-04T08:24:48.433Z,18.02
2023-06-04T08:27:15.660Z,18.02
2023-06-04T08:29:42.843Z,18.04
2023-06-04T08:32:10.630Z,18.11
2023-06-04T08:34:37.903Z,18.17
2023-06-04T08:37:05.337Z,18.26
2023-06-04T08:39:34.380Z,18.27
2023-06-04T08:42:03.264Z,18.25
2023-06-04T08:44:31.627Z,18.34
2023-06-04T08:47:07.277Z,18.47
2023-06-04T08:49:38.781Z,18.59
2023-06-04T08:52:07.370Z,18.65
2023-06-04T08:54:35.238Z,18.80
2023-06-04T08:57:03.445Z,18.82
2023-06-04T08:59:30.788Z,18.81
2023-06-04T09:01:58.244Z,18.81
2023-06-04T09:04:25.691Z,18.85
2023-06-04T09:06:53.664Z,18.91
2023-06-04T09:09:20.899Z,19.03
2023-06-04T09:11:55.831Z,19.18
2023-06-04T09:14:23.482Z,19.23
2023-06-04T09:16:52.350Z,19.33
2023-06-04T09:19:19.963Z,19.41
2023-06-04T09:21:55.955Z,19.43
2023-06-04T09:24:27.258Z,19.48
2023-06-04T09:26:54.465Z,19.46
2023-06-04T09:29:22.090Z,19.49
2023-06-04T09:31:58.824Z,19.49
2023-06-04T09:34:30.139Z,19.60
2023-06-04T09:36:57.778Z,19.65
2023-06-04T09:39:25.232Z,19.72
2023-06-04T09:42:03.723Z,19.77
2023-06-04T09:44:31.566Z,19.82
2023-06-04T09:46:59.644Z,19.88
2023-06-04T09:49:27.138Z,19.88
2023-06-04T09:51:57.535Z,19.98
2023-06-04T09:54:24.788Z,19.99
2023-06-04T09:56:52.252Z,20.04
2023-06-04T09:59:19.806Z,20.03
2023-06-04T10:01:47.007Z,20.11
2023-06-04T10:04:14.787Z,20.17
2023-06-04T10:06:42.211Z,20.21
2023-06-04T10:09:10.451Z,20.27
2023-06-04T10:11:54.342Z,20.26
2023-06-04T10:14:28.302Z,20.28
2023-06-04T10:16:55.823Z,20.29
2023-06-04T10:19:23.935Z,20.29
2023-06-04T10:21:51.250Z,20.36
2023-06-04T10:24:18.425Z,20.49
2023-06-04T10:26:45.988Z,20.48
2023-06-04T10:29:13.300Z,20.51
2023-06-04T10:31:42.474Z,20.55
2023-06-04T10:34:09.809Z,20.62
2023-06-04T10:36:45.372Z,20.69
2023-06-04T10:39:13.179Z,20.70
2023-06-04T10:41:40.625Z,20.75
2023-06-04T10:44:07.890Z,20.73
2023-06-04T10:46:40.695Z,20.81
2023-06-04T10:49:10.299Z,20.82
2023-06-04T10:51:42.006Z,20.83
2023-06-04T10:54:09.524Z,20.97
2023-06-04T10:56:37.850Z,21.06
2023-06-04T10:59:18.203Z,21.06
2023-06-04T11:01:45.938Z,21.09
2023-06-04T11:04:26.520Z,21.08
2023-06-04T11:07:04.761Z,21.05
2023-06-04T11:09:34.533Z,21.03
2023-06-04T11:12:02.317Z,21.03
2023-06-04T11:14:30.130Z,21.09
2023-06-04T11:16:57.744Z,21.13
2023-06-04T11:19:25.086Z,21.14
2023-06-04T11:21:52.305Z,21.22
2023-06-04T11:24:19.781Z,21.22
2023-06-04T11:26:56.916Z,21.19
2023-06-04T11:29:34.434Z,21.25
2023-06-04T11:32:01.697Z,21.26
2023-06-04T11:34:30.978Z,21.27
2023-06-04T11:37:08.478Z,21.29
2023-06-04T11:39:36.517Z,21.37
2023-06-04T11:42:06.543Z,21.44
2023-06-04T11:44:35.045Z,21.55
2023-06-04T11:47:02.527Z,21.59
2023-06-04T11:49:30.188Z,21.60
2023-06-04T11:51:57.594Z,21.66
2023-06-04T11:54:24.949Z,21.69
2023-06-04T11:56:52.355Z,21.75
2023-06-04T11:59:19.778Z,21.80
2023-06-04T12:01:47.776Z,21.78
2023-06-04T12:04:16.355Z,21.83
2023-06-04T12:06:59.062Z,21.85
2023-06-04T12:09:30.444Z,21.87
2023-06-04T12:12:02.005Z,22.00
2023-06-04T12:14:29.772Z,22.12
2023-06-04T12:16:58.315Z,22.19
2023-06-04T12:19:27.313Z,22.30
2023-06-04T12:22:02.840Z,22.22
2023-06-04T12:24:31.371Z,22.27
2023-06-04T12:27:05.439Z,22.38
2023-06-04T12:29:32.707Z,22.43
2023-06-04T12:32:05.060Z,22.35
2023-06-04T12:34:33.039Z,22.32
2023-06-04T12:37:00.529Z,22.08
2023-06-04T12:39:28.663Z,22.05
2023-06-04T12:41:56.248Z,22.01
2023-06-04T12:44:23.594Z,21.99
2023-06-04T12:46:51.668Z,22.13
2023-06-04T12:49:19.193Z,22.23
2023-06-04T12:51:46.767Z,22.36
2023-06-04T12:54:14.528Z,22.44
2023-06-04T12:56:44.838Z,22.55
2023-06-04T12:59:12.216Z,22.56
2023-06-04T13:01:39.903Z,22.53
2023-06-04T13:04:07.749Z,22.61
2023-06-04T13:06:36.771Z,22.62
2023-06-04T13:09:10.237Z,22.61
2023-06-04T13:11:42.695Z,22.75
2023-06-04T13:14:10.451Z,22.86
2023-06-04T13:16:39.606Z,22.95
2023-06-04T13:19:08.172Z,23.01
2023-06-04T13:21:37.670Z,22.85
2023-06-04T13:24:08.594Z,22.89
2023-06-04T13:26:36.651Z,22.96
2023-06-04T13:29:04.288Z,22.91
2023-06-04T13:31:32.232Z,22.85
2023-06-04T13:34:11.562Z,22.78
2023-06-04T13:36:49.508Z,22.83
2023-06-04T13:39:17.134Z,22.79
2023-06-04T13:41:44.522Z,22.80
2023-06-04T13:44:11.744Z,22.88
2023-06-04T13:46:39.146Z,22.88
2023-06-04T13:49:06.719Z,22.90
2023-06-04T13:51:33.899Z,22.93
2023-06-04T13:54:01.322Z,22.97
2023-06-04T13:56:28.906Z,22.92
2023-06-04T13:58:56.206Z,22.85
2023-06-04T14:01:23.670Z,22.79
2023-06-04T14:03:51.595Z,22.74
2023-06-04T14:06:19.075Z,22.71
2023-06-04T14:08:46.296Z,22.76
2023-06-04T14:11:13.434Z,22.68
2023-06-04T14:13:42.403Z,22.67
2023-06-04T14:16:09.577Z,22.64
2023-06-04T14:18:37.150Z,22.58
2023-06-04T14:21:04.269Z,22.58
2023-06-04T14:23:32.008Z,22.68
2023-06-04T14:25:59.499Z,22.80
2023-06-04T14:28:27.026Z,22.87
2023-06-04T14:30:54.259Z,22.77
2023-06-04T14:33:21.706Z,22.67
2023-06-04T14:35:48.936Z,22.57
2023-06-04T14:38:17.812Z,22.48
2023-06-04T14:40:46.653Z,22.46
2023-06-04T14:43:14.006Z,22.43
2023-06-04T14:45:41.820Z,22.42
2023-06-04T14:50:40.431Z,22.34
2023-06-04T14:53:08.730Z,22.42
2023-06-04T14:55:37.271Z,22.35
2023-06-04T14:58:05.627Z,22.34
2023-06-04T15:00:33.903Z,22.33
2023-06-04T15:03:04.046Z,22.34
2023-06-04T15:05:32.732Z,22.42
2023-06-04T15:08:00.309Z,22.45
2023-06-04T15:10:27.907Z,22.33
2023-06-04T15:12:55.261Z,22.20
2023-06-04T15:15:22.577Z,22.17
2023-06-04T15:17:50.281Z,22.13
2023-06-04T15:20:17.708Z,22.14
2023-06-04T15:22:45.504Z,22.22
2023-06-04T15:25:13.139Z,22.25
2023-06-04T15:27:42.109Z,22.28
2023-06-04T15:30:09.548Z,22.31
2023-06-04T15:32:37.423Z,22.19
2023-06-04T15:35:05.272Z,22.17
2023-06-04T15:37:32.815Z,22.14
2023-06-04T15:40:02.280Z,22.09
2023-06-04T15:42:29.669Z,22.06
2023-06-04T15:44:56.919Z,22.05
2023-06-04T15:47:24.112Z,21.96
2023-06-04T15:49:51.386Z,21.91
2023-06-04T15:52:20.637Z,21.93
2023-06-04T15:54:49.592Z,21.90
2023-06-04T15:57:17.161Z,21.92
2023-06-04T15:59:44.482Z,21.87
2023-06-04T16:02:12.142Z,21.79
2023-06-04T16:04:39.507Z,21.79
2023-06-04T16:07:07.134Z,21.83
2023-06-04T16:09:34.403Z,21.83
2023-06-04T16:12:01.631Z,21.75
2023-06-04T16:14:29.142Z,21.72
2023-06-04T16:16:56.535Z,21.68
2023-06-04T16:19:23.850Z,21.60
2023-06-04T16:21:51.565Z,21.56
2023-06-04T16:24:19.082Z,21.52
2023-06-04T16:26:46.493Z,21.54
2023-06-04T16:29:14.003Z,21.53
2023-06-04T16:31:41.553Z,21.57
2023-06-04T16:34:09.738Z,21.55
2023-06-04T16:36:39.880Z,21.47
2023-06-04T16:39:07.065Z,21.42
2023-06-04T16:41:36.246Z,21.43
2023-06-04T16:44:03.649Z,21.37
2023-06-04T16:46:31.808Z,21.32
2023-06-04T16:48:59.264Z,21.27
2023-06-04T16:51:26.627Z,21.19
2023-06-04T16:53:54.059Z,21.11
2023-06-04T16:56:22.504Z,21.05
2023-06-04T16:58:50.165Z,21.04
2023-06-04T17:01:19.244Z,21.00
2023-06-04T17:03:46.758Z,20.90
2023-06-04T17:06:14.401Z,20.83
2023-06-04T17:08:42.063Z,20.78
2023-06-04T17:11:10.910Z,20.69
2023-06-04T17:13:38.271Z,20.61
2023-06-04T17:16:06.241Z,20.54
2023-06-04T17:18:33.693Z,20.48
2023-06-04T17:21:01.251Z,20.45
2023-06-04T17:23:29.112Z,20.38
2023-06-04T17:25:56.868Z,20.34
2023-06-04T17:28:24.330Z,20.25
2023-06-04T17:30:51.875Z,20.16
2023-06-04T17:33:19.354Z,20.10
2023-06-04T17:35:46.669Z,20.05
2023-06-04T17:38:13.826Z,20.00
2023-06-04T17:40:41.152Z,19.97
2023-06-04T17:43:08.506Z,19.90
2023-06-04T17:45:36.007Z,19.82
2023-06-04T17:48:03.452Z,19.76
2023-06-04T17:50:30.866Z,19.66
2023-06-04T17:52:59.973Z,19.59
2023-06-04T17:55:27.877Z,19.53
2023-06-04T17:57:56.808Z,19.49
2023-06-04T18:00:24.296Z,19.43
2023-06-04T18:02:51.508Z,19.39
2023-06-04T18:05:19.190Z,19.34
2023-06-04T18:07:46.617Z,19.31
2023-06-04T18:10:15.298Z,19.26
2023-06-04T18:12:45.778Z,19.26
2023-06-04T18:15:16.066Z,19.16
2023-06-04T18:17:43.981Z,19.09
2023-06-04T18:20:12.026Z,19.05
2023-06-04T18:22:39.544Z,19.06
2023-06-04T18:25:09.154Z,19.01
2023-06-04T18:27:38.127Z,18.99
2023-06-04T18:30:07.630Z,18.97
2023-06-04T18:32:36.647Z,18.93
2023-06-04T18:35:04.573Z,18.87
2023-06-04T18:37:32.181Z,18.83
2023-06-04T18:39:59.398Z,18.83
2023-06-04T18:42:30.854Z,18.82
2023-06-04T18:45:00.474Z,18.78
2023-06-04T18:47:28.300Z,18.76
2023-06-04T18:49:56.882Z,18.74
2023-06-04T18:52:24.775Z,18.67
2023-06-04T18:54:52.710Z,18.62
2023-06-04T18:57:20.188Z,18.59
2023-06-04T18:59:47.344Z,18.57
2023-06-04T19:02:15.241Z,18.56
2023-06-04T19:04:45.103Z,18.53
2023-06-04T19:07:12.270Z,18.51
2023-06-04T19:09:39.555Z,18.46
2023-06-04T19:12:07.336Z,18.40
2023-06-04T19:14:35.151Z,18.37
2023-06-04T19:17:03.430Z,18.34
2023-06-04T19:19:30.680Z,18.28
2023-06-04T19:21:59.359Z,18.24
2023-06-04T19:24:26.705Z,18.16
2023-06-04T19:26:54.700Z,18.13
2023-06-04T19:29:22.364Z,18.12
2023-06-04T19:31:49.610Z,18.11
2023-06-04T19:34:17.091Z,18.05
2023-06-04T19:36:44.313Z,18.02
2023-06-04T19:39:11.745Z,17.96
2023-06-04T19:41:39.836Z,17.92
2023-06-04T19:44:07.258Z,17.88
2023-06-04T19:46:35.110Z,17.84
2023-06-04T19:49:02.470Z,17.85
2023-06-04T19:51:30.167Z,17.81
2023-06-04T19:53:57.460Z,17.82
2023-06-04T19:56:24.799Z,17.87
2023-06-04T19:58:52.668Z,17.88
2023-06-04T20:01:20.052Z,17.88
2023-06-04T20:03:47.572Z,17.81
2023-06-04T20:06:14.877Z,17.75
2023-06-04T20:08:42.682Z,17.66
2023-06-04T20:11:12.057Z,17.62
2023-06-04T20:13:41.695Z,17.56
2023-06-04T20:16:09.270Z,17.51
2023-06-04T20:18:36.964Z,17.52
2023-06-04T20:21:04.563Z,17.49
2023-06-04T20:23:32.355Z,17.44
2023-06-04T20:26:04.568Z,17.38
2023-06-04T20:28:32.115Z,17.36
2023-06-04T20:30:59.426Z,17.35
2023-06-04T20:33:27.384Z,17.35
2023-06-04T20:35:55.155Z,17.33
2023-06-04T20:38:22.849Z,17.30
2023-06-04T20:40:50.205Z,17.26
2023-06-04T20:43:19.031Z,17.22
2023-06-04T20:45:46.291Z,17.18
2023-06-04T20:48:13.630Z,17.11
2023-06-04T20:50:41.771Z,17.08
2023-06-04T20:53:12.720Z,17.03
2023-06-04T20:55:39.909Z,16.97
2023-06-04T20:58:07.465Z,16.87
2023-06-04T21:00:34.901Z,16.84
2023-06-04T21:03:02.155Z,16.80
2023-06-04T21:05:29.559Z,16.77
2023-06-04T21:07:59.944Z,16.75
2023-06-04T21:10:28.639Z,16.70
2023-06-04T21:12:56.804Z,16.67
2023-06-04T21:15:24.912Z,16.62
2023-06-04T21:17:52.955Z,16.52
2023-06-04T21:20:20.453Z,16.47
2023-06-04T21:22:48.186Z,16.41
2023-06-04T21:25:15.506Z,16.41
2023-06-04T21:27:42.905Z,16.41
2023-06-04T21:30:10.236Z,16.39
2023-06-04T21:32:38.082Z,16.35
2023-06-04T21:35:05.944Z,16.33
2023-06-04T21:37:33.551Z,16.30
2023-06-04T21:40:00.773Z,16.27
2023-06-04T21:42:27.962Z,16.25
2023-06-04T21:44:55.621Z,16.23
2023-06-04T21:47:23.187Z,16.19
2023-06-04T21:49:50.696Z,16.16
2023-06-04T21:52:25.567Z,16.13
2023-06-04T21:54:53.520Z,16.08
2023-06-04T21:57:20.882Z,16.05
2023-06-04T21:59:48.110Z,16.02
2023-06-04T22:02:15.932Z,15.99
2023-06-04T22:04:43.646Z,15.95
2023-06-04T22:07:12.298Z,15.91
2023-06-04T22:09:40.086Z,15.90
2023-06-04T22:12:08.044Z,15.88
2023-06-04T22:14:36.526Z,15.84
2023-06-04T22:17:03.750Z,15.81
2023-06-04T22:19:31.595Z,15.77
2023-06-04T22:21:59.043Z,15.73
2023-06-04T22:24:26.397Z,15.71
2023-06-04T22:26:53.529Z,15.66
2023-06-04T22:29:21.301Z,15.64
2023-06-04T22:31:49.205Z,15.66
2023-06-04T22:34:16.416Z,15.67
2023-06-04T22:36:45.783Z,15.64
2023-06-04T22:39:13.230Z,15.67
2023-06-04T22:41:40.918Z,15.68
2023-06-04T22:44:08.376Z,15.68
2023-06-04T22:46:36.568Z,15.68
2023-06-04T22:49:03.726Z,15.69
2023-06-04T22:51:31.759Z,15.68
2023-06-04T22:53:58.980Z,15.66
2023-06-04T22:56:26.400Z,15.65
2023-06-04T22:58:53.567Z,15.65
2023-06-04T23:01:20.834Z,15.62
2023-06-04T23:03:48.476Z,15.58
2023-06-04T23:06:15.901Z,15.56
2023-06-04T23:08:43.191Z,15.49
2023-06-04T23:11:10.570Z,15.46
2023-06-04T23:13:37.926Z,15.42
2023-06-04T23:16:05.935Z,15.40
2023-06-04T23:18:33.889Z,15.37
2023-06-04T23:21:01.102Z,15.33
2023-06-04T23:23:28.510Z,15.32
2023-06-04T23:25:55.640Z,15.29
2023-06-04T23:28:24.570Z,15.29
2023-06-04T23:30:51.819Z,15.29
2023-06-04T23:33:19.472Z,15.29
2023-06-04T23:35:48.957Z,15.28
2023-06-04T23:38:16.320Z,15.26
2023-06-04T23:40:43.613Z,15.24
2023-06-04T23:43:11.417Z,15.24
2023-06-04T23:45:39.121Z,15.23
2023-06-04T23:48:06.588Z,15.22
2023-06-04T23:50:33.937Z,15.22
2023-06-04T23:53:01.460Z,15.23
2023-06-04T23:55:28.605Z,15.22
2023-06-04T23:57:56.451Z,15.19
